Time;durP1;ratioP1;P1;durP2;ratioP2;P2;SDS_P1;SDS_P2;PMS_P1;PMS_P2;Temp;Humidity;BMP_temperature;BMP_pressure;BME280_temperature;BME280_humidity;BME280_pressure;Samples;Min_cycle;Max_cycle;Signal;HPM_P1;HPM_P2
2023/02/01 00:00:04;;;;;;;5.47;3.60;;;;;;;;;;5056771;28;20213;-84
2023/02/01 00:02:32;;;;;;;5.77;3.53;;;;;;;;;;5053171;28;20256;-84
2023/02/01 00:05:00;;;;;;;6.70;3.23;;;;;;;;;;5054734;28;20232;-84
2023/02/01 00:07:27;;;;;;;3.40;2.63;;;;;;;;;;5061176;28;20206;-85
2023/02/01 00:09:54;;;;;;;4.27;2.90;;;;;;;;;;5068701;28;20205;-85
2023/02/01 00:12:22;;;;;;;4.30;2.57;;;;;;;;;;5071696;28;20205;-85
2023/02/01 00:14:49;;;;;;;2.50;1.97;;;;;;;;;;5072195;28;20212;-86
2023/02/01 00:17:16;;;;;;;4.53;2.93;;;;;;;;;;5071507;28;20641;-85
2023/02/01 00:19:43;;;;;;;2.87;2.60;;;;;;;;;;5072478;28;20210;-85
2023/02/01 00:22:10;;;;;;;2.80;2.27;;;;;;;;;;5072283;28;20205;-85
2023/02/01 00:24:37;;;;;;;2.70;2.40;;;;;;;;;;5032790;28;20562;-85
2023/02/01 00:27:04;;;;;;;3.23;2.67;;;;;;;;;;5043275;28;20209;-85
2023/02/01 00:29:33;;;;;;;3.23;2.97;;;;;;;;;;5051148;28;20206;-84
2023/02/01 00:32:00;;;;;;;2.20;2.10;;;;;;;;;;5052173;28;20209;-84
2023/02/01 00:34:27;;;;;;;2.40;2.20;;;;;;;;;;5051011;28;20669;-84
2023/02/01 00:36:54;;;;;;;3.63;2.43;;;;;;;;;;5051612;28;20719;-84
2023/02/01 00:39:21;;;;;;;2.50;2.30;;;;;;;;;;5044354;28;20230;-87
2023/02/01 00:41:48;;;;;;;2.57;2.37;;;;;;;;;;5057332;28;20278;-85
2023/02/01 00:44:15;;;;;;;3.37;2.80;;;;;;;;;;5065731;28;20267;-84
2023/02/01 00:46:43;;;;;;;2.50;2.30;;;;;;;;;;5051768;28;20201;-85
2023/02/01 00:49:10;;;;;;;2.87;2.60;;;;;;;;;;5052578;28;20253;-85
2023/02/01 00:51:37;;;;;;;2.63;2.43;;;;;;;;;;5064279;28;20602;-85
2023/02/01 00:54:05;;;;;;;2.70;2.43;;;;;;;;;;5059236;28;20209;-85
2023/02/01 00:56:32;;;;;;;2.87;2.53;;;;;;;;;;5058182;28;20197;-84
2023/02/01 00:58:59;;;;;;;3.07;2.50;;;;;;;;;;5062305;28;20241;-85
2023/02/01 01:01:28;;;;;;;2.23;1.80;;;;;;;;;;5052002;28;20259;-85
2023/02/01 01:03:57;;;;;;;2.63;2.43;;;;;;;;;;5061598;28;20725;-86
2023/02/01 01:06:26;;;;;;;3.17;2.33;;;;;;;;;;5066980;28;20205;-85
2023/02/01 01:08:54;;;;;;;3.17;2.87;;;;;;;;;;5062128;28;20206;-85
2023/02/01 01:11:22;;;;;;;2.60;2.40;;;;;;;;;;5050692;28;20248;-86
2023/02/01 01:13:50;;;;;;;4.07;2.80;;;;;;;;;;5060854;28;20194;-86
2023/02/01 01:16:18;;;;;;;2.43;2.00;;;;;;;;;;5051267;28;20221;-85
2023/02/01 01:18:45;;;;;;;3.20;2.20;;;;;;;;;;5051260;28;20850;-85
2023/02/01 01:21:15;;;;;;;3.30;2.40;;;;;;;;;;5051397;28;20271;-85
2023/02/01 01:23:43;;;;;;;2.27;2.07;;;;;;;;;;5062774;28;20204;-85
2023/02/01 01:26:11;;;;;;;3.13;2.67;;;;;;;;;;5065812;28;20210;-85
2023/02/01 01:28:38;;;;;;;2.43;2.23;;;;;;;;;;5051401;28;20237;-85
2023/02/01 01:31:09;;;;;;;2.47;2.27;;;;;;;;;;5047567;28;20221;-85
2023/02/01 01:33:37;;;;;;;2.43;2.23;;;;;;;;;;5083870;28;20245;-85
2023/02/01 01:36:06;;;;;;;2.87;2.47;;;;;;;;;;5056452;28;20197;-85
2023/02/01 01:38:34;;;;;;;2.53;2.33;;;;;;;;;;5058477;28;20663;-85
2023/02/01 01:41:01;;;;;;;2.40;2.20;;;;;;;;;;5057296;28;20749;-85
2023/02/01 01:43:53;;;;;;;3.40;2.10;;;;;;;;;;5058235;28;20206;-87
2023/02/01 01:46:21;;;;;;;2.10;2.00;;;;;;;;;;5049888;28;20306;-86
2023/02/01 01:48:51;;;;;;;2.37;2.10;;;;;;;;;;5053524;28;20214;-86
2023/02/01 01:51:20;;;;;;;2.47;1.60;;;;;;;;;;5062759;28;20201;-85
2023/02/01 01:53:55;;;;;;;3.77;3.10;;;;;;;;;;5053092;28;20209;-86
2023/02/01 01:56:23;;;;;;;3.80;2.40;;;;;;;;;;5051188;28;20212;-85
2023/02/01 01:58:50;;;;;;;4.07;2.40;;;;;;;;;;5066656;28;20279;-86
2023/02/01 02:01:17;;;;;;;2.93;2.60;;;;;;;;;;5063826;28;20205;-85
2023/02/01 02:03:45;;;;;;;2.53;2.33;;;;;;;;;;5070906;28;20653;-85
2023/02/01 02:06:17;;;;;;;2.73;2.53;;;;;;;;;;5057817;28;20206;-87
2023/02/01 02:08:44;;;;;;;2.93;2.27;;;;;;;;;;5069770;28;20638;-87
2023/02/01 02:11:17;;;;;;;2.47;2.27;;;;;;;;;;5055263;28;20267;-91
2023/02/01 02:13:48;;;;;;;3.20;2.90;;;;;;;;;;5049521;28;20206;-86
2023/02/01 02:16:27;;;;;;;2.97;2.63;;;;;;;;;;5053567;28;20201;-86
2023/02/01 02:19:01;;;;;;;3.17;2.83;;;;;;;;;;5072748;28;20278;-85
2023/02/01 02:21:41;;;;;;;4.83;3.90;;;;;;;;;;5061594;28;20230;-85
2023/02/01 02:24:35;;;;;;;4.87;4.03;;;;;;;;;;5061565;28;20217;-85
2023/02/01 02:27:22;;;;;;;5.20;3.30;;;;;;;;;;5071150;28;20274;-85
2023/02/01 02:30:37;;;;;;;4.23;2.20;;;;;;;;;;5041935;28;20209;-85
2023/02/01 02:33:47;;;;;;;1.87;1.73;;;;;;;;;;5014504;28;20213;-85
2023/02/01 02:36:20;;;;;;;3.50;2.20;;;;;;;;;;5067330;28;20205;-86
2023/02/01 02:38:53;;;;;;;2.27;2.07;;;;;;;;;;5054232;28;20699;-85
2023/02/01 02:54:45;;;;;;;3.47;3.10;;;;;;;;;;5066071;28;20267;-89
2023/02/01 02:55:28;;;;;;;3.10;2.37;;;;;;;;;;5072822;28;20687;-84
2023/02/01 03:06:14;;;;;;;1.67;1.57;;;;;;;;;;5074004;28;20714;-85
2023/02/01 03:08:45;;;;;;;2.07;1.73;;;;;;;;;;5049009;28;20212;-86
2023/02/01 03:11:13;;;;;;;2.67;1.90;;;;;;;;;;5059384;28;20224;-85
2023/02/01 03:13:44;;;;;;;2.20;2.00;;;;;;;;;;5062856;28;20212;-84
2023/02/01 03:16:15;;;;;;;2.50;2.30;;;;;;;;;;5036953;28;20209;-85
2023/02/01 03:18:48;;;;;;;2.63;2.00;;;;;;;;;;5064229;28;20231;-85
2023/02/01 03:21:18;;;;;;;1.53;1.43;;;;;;;;;;5055913;28;20197;-86
2023/02/01 03:23:47;;;;;;;2.43;2.23;;;;;;;;;;5053944;28;20236;-85
2023/02/01 03:26:16;;;;;;;3.20;2.07;;;;;;;;;;5072387;28;20205;-89
2023/02/01 03:28:45;;;;;;;2.33;2.13;;;;;;;;;;5060408;28;20264;-85
2023/02/01 03:31:13;;;;;;;2.13;2.00;;;;;;;;;;5071435;28;20212;-84
2023/02/01 03:33:42;;;;;;;3.30;2.10;;;;;;;;;;5071484;28;20212;-85
2023/02/01 03:36:16;;;;;;;1.80;1.70;;;;;;;;;;5053266;28;20202;-86
2023/02/01 03:38:51;;;;;;;2.40;2.20;;;;;;;;;;5052820;28;20402;-86
2023/02/01 03:41:21;;;;;;;5.93;1.77;;;;;;;;;;5054621;28;20201;-87
2023/02/01 03:43:54;;;;;;;3.60;1.90;;;;;;;;;;5052217;28;20282;-87
2023/02/01 03:46:26;;;;;;;1.70;1.60;;;;;;;;;;5058431;28;20208;-86
2023/02/01 03:48:53;;;;;;;1.90;1.80;;;;;;;;;;5067607;28;20214;-87
2023/02/01 03:51:21;;;;;;;1.93;1.83;;;;;;;;;;5035622;28;20202;-86
2023/02/01 03:53:51;;;;;;;2.50;2.03;;;;;;;;;;5053040;28;20202;-87
2023/02/01 03:56:20;;;;;;;2.57;2.37;;;;;;;;;;5051326;28;20252;-87
2023/02/01 03:58:58;;;;;;;2.97;2.10;;;;;;;;;;5052837;28;20233;-88
2023/02/01 04:01:26;;;;;;;2.63;2.20;;;;;;;;;;5054633;28;20736;-87
2023/02/01 04:03:53;;;;;;;1.97;1.77;;;;;;;;;;5055016;28;20268;-86
2023/02/01 04:06:20;;;;;;;2.37;2.17;;;;;;;;;;5035020;28;20224;-87
2023/02/01 04:08:47;;;;;;;2.30;2.10;;;;;;;;;;5063257;28;20568;-87
2023/02/01 04:11:15;;;;;;;2.77;2.00;;;;;;;;;;5068844;28;20757;-86
2023/02/01 04:13:42;;;;;;;2.93;1.90;;;;;;;;;;5053192;28;20197;-86
2023/02/01 04:16:09;;;;;;;2.13;1.80;;;;;;;;;;5051516;28;20621;-86
2023/02/01 04:18:36;;;;;;;3.10;2.10;;;;;;;;;;5063736;28;20286;-85
2023/02/01 04:21:04;;;;;;;4.37;3.23;;;;;;;;;;5058961;28;20205;-86
2023/02/01 04:23:32;;;;;;;2.00;1.90;;;;;;;;;;5054960;28;20216;-86
2023/02/01 04:26:03;;;;;;;1.33;1.23;;;;;;;;;;5069615;28;20674;-85
2023/02/01 04:28:31;;;;;;;5.93;2.10;;;;;;;;;;5052215;28;20217;-86
2023/02/01 04:30:58;;;;;;;1.97;1.67;;;;;;;;;;5065543;28;20206;-85
2023/02/01 04:33:25;;;;;;;2.20;2.00;;;;;;;;;;5038759;28;20258;-84
2023/02/01 04:35:53;;;;;;;1.80;1.70;;;;;;;;;;5065182;28;20204;-85
2023/02/01 04:38:24;;;;;;;1.80;1.70;;;;;;;;;;5051590;28;20651;-84
2023/02/01 04:40:51;;;;;;;3.37;1.83;;;;;;;;;;5059806;28;20213;-84
2023/02/01 04:43:18;;;;;;;2.23;1.80;;;;;;;;;;5052106;28;20210;-84
2023/02/01 04:45:49;;;;;;;3.17;2.03;;;;;;;;;;5037320;28;20670;-83
2023/02/01 04:48:17;;;;;;;2.40;1.83;;;;;;;;;;5061134;28;20301;-90
2023/02/01 04:50:47;;;;;;;2.20;1.70;;;;;;;;;;5054018;28;20212;-85
2023/02/01 04:53:14;;;;;;;2.33;2.13;;;;;;;;;;5050702;28;20201;-84
2023/02/01 04:55:41;;;;;;;2.47;1.60;;;;;;;;;;5049859;28;20283;-85
2023/02/01 04:58:09;;;;;;;2.70;1.80;;;;;;;;;;5051562;28;20264;-84
2023/02/01 05:00:36;;;;;;;2.83;1.80;;;;;;;;;;5063806;28;20229;-84
2023/02/01 05:03:05;;;;;;;2.53;2.33;;;;;;;;;;5063968;28;20258;-83
2023/02/01 05:05:32;;;;;;;3.00;2.10;;;;;;;;;;5065786;28;20232;-85
2023/02/01 05:07:58;;;;;;;3.53;2.20;;;;;;;;;;5052209;28;20205;-78
2023/02/01 05:10:25;;;;;;;4.03;3.10;;;;;;;;;;5050617;28;20198;-84
2023/02/01 05:15:36;;;;;;;2.40;2.23;;;;;;;;;;5082212;28;20208;-82
2023/02/01 05:18:04;;;;;;;2.40;2.20;;;;;;;;;;5051971;28;20209;-83
2023/02/01 05:20:31;;;;;;;2.07;1.93;;;;;;;;;;5057114;28;20715;-84
2023/02/01 05:22:58;;;;;;;2.57;1.70;;;;;;;;;;5058673;28;20213;-84
2023/02/01 05:25:24;;;;;;;3.00;2.27;;;;;;;;;;5057762;28;20643;-83
2023/02/01 05:27:51;;;;;;;2.67;2.47;;;;;;;;;;5071481;28;20663;-83
2023/02/01 05:30:20;;;;;;;2.37;2.07;;;;;;;;;;5071281;28;20223;-84
2023/02/01 05:32:50;;;;;;;1.87;1.67;;;;;;;;;;5052874;28;20208;-84
2023/02/01 05:35:19;;;;;;;2.00;1.90;;;;;;;;;;5049223;28;20255;-83
2023/02/01 05:37:46;;;;;;;3.00;2.10;;;;;;;;;;5033964;28;20214;-83
2023/02/01 05:40:13;;;;;;;2.70;2.50;;;;;;;;;;5064529;28;20225;-85
2023/02/01 05:42:40;;;;;;;3.77;3.47;;;;;;;;;;5044743;28;20321;-84
2023/02/01 05:45:08;;;;;;;4.23;2.70;;;;;;;;;;5057014;28;20604;-84
2023/02/01 05:47:35;;;;;;;5.10;2.23;;;;;;;;;;5051711;28;20214;-84
2023/02/01 05:50:02;;;;;;;3.17;1.97;;;;;;;;;;5064710;28;20641;-84
2023/02/01 05:52:30;;;;;;;3.13;2.57;;;;;;;;;;5050955;28;20202;-84
2023/02/01 05:54:57;;;;;;;2.57;2.20;;;;;;;;;;5051811;28;20259;-84
2023/02/01 05:57:24;;;;;;;4.00;1.97;;;;;;;;;;5063455;28;20677;-84
2023/02/01 05:59:50;;;;;;;12.63;7.30;;;;;;;;;;5065496;28;20233;-84
2023/02/01 06:02:17;;;;;;;20.93;11.90;;;;;;;;;;5062848;28;20569;-84
2023/02/01 06:04:44;;;;;;;12.43;8.10;;;;;;;;;;5052849;28;20244;-84
2023/02/01 06:07:11;;;;;;;8.07;5.27;;;;;;;;;;5070887;28;20208;-84
2023/02/01 06:09:39;;;;;;;64.37;35.07;;;;;;;;;;5055461;28;20220;-84
2023/02/01 06:12:07;;;;;;;58.77;33.80;;;;;;;;;;5051304;28;20210;-84
2023/02/01 06:14:33;;;;;;;13.70;9.60;;;;;;;;;;5064138;28;20217;-84
2023/02/01 06:17:05;;;;;;;7.27;5.53;;;;;;;;;;5051279;28;20221;-84
2023/02/01 06:19:32;;;;;;;6.37;5.10;;;;;;;;;;5051015;28;20264;-83
2023/02/01 06:21:58;;;;;;;3.00;2.60;;;;;;;;;;5050915;28;20213;-84
2023/02/01 06:24:25;;;;;;;7.57;5.63;;;;;;;;;;5064437;28;20210;-84
2023/02/01 06:26:53;;;;;;;11.83;8.43;;;;;;;;;;5051774;28;20217;-85
2023/02/01 06:29:21;;;;;;;5.87;4.73;;;;;;;;;;5064566;28;20214;-85
2023/02/01 06:31:48;;;;;;;5.00;3.50;;;;;;;;;;5050956;28;20272;-88
2023/02/01 06:34:15;;;;;;;10.70;6.03;;;;;;;;;;5051176;28;20201;-83
2023/02/01 06:36:42;;;;;;;14.83;10.93;;;;;;;;;;5050876;28;20206;-84
2023/02/01 06:39:09;;;;;;;9.40;7.17;;;;;;;;;;5063996;28;20218;-84
2023/02/01 06:41:35;;;;;;;8.23;5.13;;;;;;;;;;5050633;28;20214;-84
2023/02/01 06:44:04;;;;;;;7.80;5.90;;;;;;;;;;5068044;28;20205;-84
2023/02/01 06:46:30;;;;;;;8.40;6.37;;;;;;;;;;5059503;28;20202;-85
2023/02/01 06:48:58;;;;;;;3.60;3.23;;;;;;;;;;5064392;28;20205;-85
2023/02/01 06:51:29;;;;;;;5.97;5.30;;;;;;;;;;5051205;28;20597;-84
2023/02/01 06:53:55;;;;;;;7.53;4.70;;;;;;;;;;5056914;28;20205;-85
2023/02/01 06:56:23;;;;;;;8.00;5.97;;;;;;;;;;5058297;28;20221;-84
2023/02/01 06:58:51;;;;;;;8.93;7.63;;;;;;;;;;5070011;28;20208;-85
2023/02/01 07:01:20;;;;;;;7.27;4.77;;;;;;;;;;5070476;28;20243;-85
2023/02/01 07:03:48;;;;;;;6.13;4.67;;;;;;;;;;5044956;28;20751;-84
2023/02/01 07:06:15;;;;;;;3.47;2.13;;;;;;;;;;5060610;28;20289;-84
2023/02/01 07:08:42;;;;;;;6.40;4.30;;;;;;;;;;5061169;28;20212;-85
2023/02/01 07:11:10;;;;;;;3.83;3.30;;;;;;;;;;5060585;28;20262;-84
2023/02/01 07:13:38;;;;;;;3.77;2.40;;;;;;;;;;5074489;28;20228;-84
2023/02/01 07:16:07;;;;;;;3.57;2.50;;;;;;;;;;5058654;28;20205;-83
2023/02/01 07:18:35;;;;;;;3.73;3.23;;;;;;;;;;5062442;28;20216;-85
2023/02/01 07:21:02;;;;;;;5.87;3.90;;;;;;;;;;5058306;28;20229;-85
2023/02/01 07:23:30;;;;;;;5.43;4.10;;;;;;;;;;5062895;28;20209;-85
2023/02/01 07:25:57;;;;;;;7.83;5.57;;;;;;;;;;5070973;28;20216;-85
2023/02/01 07:28:24;;;;;;;5.80;5.20;;;;;;;;;;5062755;28;20201;-85
2023/02/01 07:30:51;;;;;;;4.43;3.20;;;;;;;;;;5057345;28;20209;-85
2023/02/01 07:33:20;;;;;;;4.90;3.50;;;;;;;;;;5063593;28;20295;-85
2023/02/01 07:35:48;;;;;;;4.23;3.60;;;;;;;;;;5056648;28;20240;-84
2023/02/01 07:38:15;;;;;;;9.27;6.20;;;;;;;;;;5053355;28;20279;-85
2023/02/01 07:40:42;;;;;;;7.37;4.90;;;;;;;;;;5053396;28;20244;-84
2023/02/01 07:43:09;;;;;;;5.43;3.63;;;;;;;;;;5053257;28;20673;-84
2023/02/01 07:45:37;;;;;;;4.73;3.97;;;;;;;;;;5053362;28;20202;-84
2023/02/01 07:48:04;;;;;;;3.80;3.40;;;;;;;;;;5052724;28;20220;-84
2023/02/01 07:50:31;;;;;;;3.87;2.60;;;;;;;;;;5066616;28;20202;-83
2023/02/01 07:53:01;;;;;;;6.70;4.40;;;;;;;;;;5053284;28;20696;-84
2023/02/01 07:55:29;;;;;;;12.63;9.00;;;;;;;;;;5072179;28;20232;-83
2023/02/01 07:57:58;;;;;;;3.73;3.07;;;;;;;;;;5072766;28;20240;-84
2023/02/01 08:03:10;;;;;;;13.00;8.47;;;;;;;;;;5054811;28;20212;-83
2023/02/01 08:05:37;;;;;;;13.83;7.80;;;;;;;;;;5064391;28;20237;-83
2023/02/01 08:08:06;;;;;;;12.00;6.60;;;;;;;;;;5066368;28;20212;-84
2023/02/01 08:10:34;;;;;;;17.70;13.10;;;;;;;;;;5053081;28;20597;-83
2023/02/01 08:13:01;;;;;;;16.63;11.37;;;;;;;;;;5069574;28;20232;-83
2023/02/01 08:15:29;;;;;;;9.13;6.60;;;;;;;;;;5061707;28;20221;-84
2023/02/01 08:17:56;;;;;;;13.10;6.90;;;;;;;;;;5056332;28;20216;-83
2023/02/01 08:20:24;;;;;;;8.90;6.97;;;;;;;;;;5072228;28;20229;-84
2023/02/01 08:22:50;;;;;;;8.30;6.70;;;;;;;;;;5068237;28;20677;-83
2023/02/01 08:25:19;;;;;;;7.20;5.40;;;;;;;;;;5052412;28;20206;-83
2023/02/01 08:27:45;;;;;;;4.63;3.73;;;;;;;;;;5065553;28;20209;-83
2023/02/01 08:30:13;;;;;;;11.63;6.20;;;;;;;;;;5052317;28;20217;-83
2023/02/01 08:32:43;;;;;;;4.50;2.93;;;;;;;;;;5052363;28;20213;-83
2023/02/01 08:35:10;;;;;;;3.37;2.00;;;;;;;;;;5064300;28;20233;-83
2023/02/01 08:37:37;;;;;;;5.43;3.80;;;;;;;;;;5066838;28;20209;-83
2023/02/01 08:40:07;;;;;;;5.17;3.93;;;;;;;;;;5052229;28;20221;-83
2023/02/01 08:42:53;;;;;;;6.70;4.97;;;;;;;;;;5052483;28;20213;-83
2023/02/01 08:45:23;;;;;;;3.90;3.40;;;;;;;;;;5065197;28;20691;-84
2023/02/01 08:47:51;;;;;;;2.53;2.33;;;;;;;;;;5052110;28;20206;-83
2023/02/01 08:50:18;;;;;;;3.30;3.03;;;;;;;;;;5054606;28;20214;-83
2023/02/01 08:52:45;;;;;;;3.87;2.40;;;;;;;;;;5071751;28;20255;-83
2023/02/01 08:55:13;;;;;;;2.00;1.80;;;;;;;;;;5058219;28;20208;-83
2023/02/01 08:57:41;;;;;;;3.83;3.53;;;;;;;;;;5061946;28;20214;-83
2023/02/01 09:00:11;;;;;;;4.13;3.27;;;;;;;;;;5055047;28;21062;-83
2023/02/01 09:02:38;;;;;;;4.13;3.57;;;;;;;;;;5071577;28;20216;-83
2023/02/01 09:05:06;;;;;;;4.47;3.87;;;;;;;;;;5066806;28;20226;-84
2023/02/01 09:07:42;;;;;;;6.83;4.97;;;;;;;;;;5051841;28;20217;-83
2023/02/01 09:10:10;;;;;;;3.70;3.37;;;;;;;;;;5051474;28;20209;-83
2023/02/01 09:12:37;;;;;;;3.63;2.13;;;;;;;;;;5051784;28;20205;-84
2023/02/01 09:15:08;;;;;;;5.13;3.90;;;;;;;;;;5064523;28;20236;-83
2023/02/01 09:17:35;;;;;;;11.47;6.23;;;;;;;;;;5038396;28;20207;-83
2023/02/01 09:20:01;;;;;;;4.30;3.03;;;;;;;;;;5044971;28;20678;-83
2023/02/01 09:22:28;;;;;;;6.77;3.57;;;;;;;;;;5057585;28;20210;-84
2023/02/01 09:24:55;;;;;;;7.57;4.00;;;;;;;;;;5058767;28;20719;-84
2023/02/01 09:27:23;;;;;;;4.03;2.87;;;;;;;;;;5070932;28;20201;-83
2023/02/01 09:29:52;;;;;;;4.80;3.03;;;;;;;;;;5063872;28;20210;-84
2023/02/01 09:32:21;;;;;;;3.53;3.07;;;;;;;;;;5053097;28;20237;-84
2023/02/01 09:34:48;;;;;;;6.73;3.13;;;;;;;;;;5071474;28;20291;-84
2023/02/01 09:37:14;;;;;;;3.30;2.77;;;;;;;;;;5057552;28;20208;-84
2023/02/01 09:39:42;;;;;;;1.80;1.70;;;;;;;;;;5062167;28;20680;-83
2023/02/01 09:42:20;;;;;;;4.37;3.40;;;;;;;;;;5064282;28;20724;-83
2023/02/01 09:44:58;;;;;;;3.30;2.40;;;;;;;;;;5062663;28;20213;-83
2023/02/01 09:47:27;;;;;;;4.53;2.40;;;;;;;;;;5051909;28;20626;-83
2023/02/01 09:49:57;;;;;;;4.50;3.27;;;;;;;;;;5050782;28;20301;-85
2023/02/01 09:52:32;;;;;;;3.27;2.80;;;;;;;;;;5058663;28;20224;-83
2023/02/01 09:55:02;;;;;;;5.43;4.37;;;;;;;;;;5055837;28;20206;-84
2023/02/01 09:57:41;;;;;;;6.23;4.90;;;;;;;;;;5060091;28;20211;-83
2023/02/01 10:00:18;;;;;;;2.50;2.30;;;;;;;;;;5053414;28;20657;-84
2023/02/01 10:02:46;;;;;;;1.83;1.73;;;;;;;;;;5063265;28;20208;-84
2023/02/01 10:05:16;;;;;;;2.30;2.10;;;;;;;;;;5064898;28;20241;-82
2023/02/01 10:07:52;;;;;;;2.23;2.03;;;;;;;;;;5050883;28;20209;-83
2023/02/01 10:10:24;;;;;;;2.10;1.93;;;;;;;;;;5059236;28;20204;-83
2023/02/01 10:13:12;;;;;;;2.00;1.90;;;;;;;;;;5068896;28;20205;-83
2023/02/01 10:15:52;;;;;;;1.90;1.80;;;;;;;;;;5050930;28;20209;-82
2023/02/01 10:18:30;;;;;;;1.80;1.70;;;;;;;;;;5038192;28;20213;-84
2023/02/01 10:21:02;;;;;;;4.90;1.90;;;;;;;;;;5052780;28;20225;-85
2023/02/01 10:23:44;;;;;;;4.33;2.90;;;;;;;;;;5071057;28;20227;-84
2023/02/01 10:26:19;;;;;;;6.73;4.10;;;;;;;;;;5052109;28;20217;-84
2023/02/01 10:28:49;;;;;;;8.37;4.10;;;;;;;;;;5062820;28;20733;-83
2023/02/01 10:31:16;;;;;;;2.50;2.30;;;;;;;;;;5051002;28;20213;-84
2023/02/01 10:33:46;;;;;;;7.27;4.80;;;;;;;;;;5038689;28;20716;-84
2023/02/01 10:36:16;;;;;;;3.53;3.23;;;;;;;;;;5050187;28;20198;-84
2023/02/01 10:38:44;;;;;;;2.97;2.53;;;;;;;;;;5051702;28;20206;-85
2023/02/01 10:41:13;;;;;;;3.07;2.77;;;;;;;;;;5061770;28;20235;-84
2023/02/01 10:43:41;;;;;;;3.63;3.33;;;;;;;;;;5072828;28;20209;-85
2023/02/01 10:46:08;;;;;;;2.43;2.10;;;;;;;;;;5062449;28;20205;-85
2023/02/01 10:48:35;;;;;;;2.40;2.23;;;;;;;;;;5059674;28;20225;-85
2023/02/01 10:51:08;;;;;;;4.43;3.03;;;;;;;;;;5054497;28;20216;-85
2023/02/01 10:53:37;;;;;;;3.10;2.80;;;;;;;;;;5054092;28;20693;-86
2023/02/01 10:56:09;;;;;;;2.37;2.17;;;;;;;;;;5054288;28;20217;-85
2023/02/01 10:58:37;;;;;;;3.20;1.67;;;;;;;;;;5054212;28;20713;-86
2023/02/01 11:01:05;;;;;;;1.63;1.53;;;;;;;;;;5053968;28;20245;-86
2023/02/01 11:03:38;;;;;;;3.50;2.77;;;;;;;;;;5049638;28;20211;-86
2023/02/01 11:06:15;;;;;;;2.60;2.40;;;;;;;;;;5046304;28;20216;-86
2023/02/01 11:08:45;;;;;;;2.10;1.90;;;;;;;;;;5053975;28;20714;-85
2023/02/01 11:11:12;;;;;;;3.77;2.73;;;;;;;;;;5054400;28;20198;-85
2023/02/01 11:13:40;;;;;;;2.90;2.03;;;;;;;;;;5053634;28;20206;-85
2023/02/01 11:16:10;;;;;;;2.20;2.10;;;;;;;;;;5053887;28;20210;-85
2023/02/01 11:18:38;;;;;;;2.20;2.00;;;;;;;;;;5054344;28;20213;-85
2023/02/01 11:21:06;;;;;;;3.87;1.93;;;;;;;;;;5055995;28;20229;-86
2023/02/01 11:23:36;;;;;;;2.90;2.37;;;;;;;;;;5073919;28;20212;-86
2023/02/01 11:26:10;;;;;;;3.33;2.93;;;;;;;;;;5060303;28;20209;-86
2023/02/01 11:28:41;;;;;;;7.97;5.13;;;;;;;;;;5063194;28;20205;-85
2023/02/01 11:31:11;;;;;;;6.37;4.63;;;;;;;;;;5072261;28;20209;-86
2023/02/01 11:33:48;;;;;;;5.97;3.80;;;;;;;;;;5073935;28;20573;-85
2023/02/01 11:36:17;;;;;;;2.97;2.77;;;;;;;;;;5041372;28;20193;-85
2023/02/01 11:38:53;;;;;;;5.10;4.17;;;;;;;;;;5066724;28;20213;-84
2023/02/01 11:41:23;;;;;;;3.07;2.30;;;;;;;;;;5053534;28;20240;-85
2023/02/01 11:43:56;;;;;;;2.03;1.93;;;;;;;;;;5053341;28;20674;-85
2023/02/01 11:46:26;;;;;;;1.93;1.83;;;;;;;;;;5053539;28;20206;-85
2023/02/01 11:48:54;;;;;;;3.57;2.60;;;;;;;;;;5053334;28;20612;-85
2023/02/01 11:51:33;;;;;;;2.53;2.33;;;;;;;;;;5065268;28;20209;-85
2023/02/01 11:54:12;;;;;;;3.03;1.70;;;;;;;;;;5066558;28;20209;-85
2023/02/01 11:56:48;;;;;;;2.30;2.10;;;;;;;;;;5053675;28;20664;-84
2023/02/01 11:59:34;;;;;;;2.40;1.83;;;;;;;;;;5053718;28;20205;-87
2023/02/01 12:02:36;;;;;;;2.57;2.37;;;;;;;;;;5066821;28;20226;-87
2023/02/01 12:05:27;;;;;;;3.27;2.63;;;;;;;;;;5057486;28;20229;-85
2023/02/01 12:08:16;;;;;;;3.73;2.00;;;;;;;;;;5060097;28;20873;-85
2023/02/01 12:10:52;;;;;;;1.70;1.60;;;;;;;;;;5073757;28;20216;-84
2023/02/01 12:13:29;;;;;;;2.70;1.60;;;;;;;;;;5059410;28;20719;-85
2023/02/01 12:16:03;;;;;;;3.63;2.23;;;;;;;;;;5059998;28;20205;-86
2023/02/01 12:18:47;;;;;;;1.80;1.70;;;;;;;;;;5065336;28;20209;-85
2023/02/01 12:21:29;;;;;;;1.80;1.70;;;;;;;;;;5052698;28;20244;-85
2023/02/01 12:24:21;;;;;;;1.77;1.67;;;;;;;;;;5052796;28;20292;-85
2023/02/01 12:27:06;;;;;;;1.93;1.60;;;;;;;;;;5050820;28;20210;-85
2023/02/01 12:29:56;;;;;;;3.33;2.50;;;;;;;;;;5053006;28;20202;-86
2023/02/01 12:32:35;;;;;;;1.90;1.47;;;;;;;;;;5067665;28;20213;-85
2023/02/01 12:35:35;;;;;;;1.97;1.80;;;;;;;;;;5063104;28;20584;-85
2023/02/01 12:38:11;;;;;;;2.23;1.47;;;;;;;;;;5052650;28;20213;-85
2023/02/01 12:40:48;;;;;;;1.70;1.60;;;;;;;;;;5068983;28;20196;-86
2023/02/01 12:43:21;;;;;;;1.87;1.77;;;;;;;;;;5072533;28;20209;-86
2023/02/01 12:45:52;;;;;;;2.23;1.90;;;;;;;;;;5067074;28;20202;-86
2023/02/01 12:48:32;;;;;;;1.77;1.67;;;;;;;;;;5065603;28;20215;-85
2023/02/01 12:51:02;;;;;;;1.57;1.47;;;;;;;;;;5048793;28;20201;-86
2023/02/01 12:53:35;;;;;;;1.00;1.00;;;;;;;;;;5057034;28;20213;-85
2023/02/01 12:56:07;;;;;;;8.17;4.17;;;;;;;;;;5062080;28;20748;-85
2023/02/01 12:58:40;;;;;;;2.47;2.27;;;;;;;;;;5058605;28;20205;-89
2023/02/01 13:01:12;;;;;;;2.37;1.63;;;;;;;;;;5059877;28;20591;-85
2023/02/01 13:03:42;;;;;;;2.63;1.70;;;;;;;;;;5058001;28;20229;-85
2023/02/01 13:06:12;;;;;;;1.87;1.73;;;;;;;;;;5072064;28;20636;-86
2023/02/01 13:08:47;;;;;;;2.30;1.73;;;;;;;;;;5064689;28;20577;-86
2023/02/01 13:11:17;;;;;;;3.73;1.90;;;;;;;;;;5051930;28;20233;-85
2023/02/01 13:13:54;;;;;;;3.00;2.17;;;;;;;;;;5061033;28;20279;-85
2023/02/01 13:16:26;;;;;;;2.10;1.57;;;;;;;;;;5058817;28;20307;-85
2023/02/01 13:19:02;;;;;;;1.87;1.77;;;;;;;;;;5072080;28;20217;-84
2023/02/01 13:21:33;;;;;;;2.77;1.53;;;;;;;;;;5065075;28;20707;-85
2023/02/01 13:24:00;;;;;;;1.83;1.73;;;;;;;;;;5051520;28;20205;-86
2023/02/01 13:26:27;;;;;;;2.03;1.83;;;;;;;;;;5058071;28;20217;-85
2023/02/01 13:28:58;;;;;;;2.30;1.93;;;;;;;;;;5071707;28;20574;-84
2023/02/01 13:31:53;;;;;;;2.57;2.37;;;;;;;;;;5071580;28;20243;-86
2023/02/01 13:34:55;;;;;;;1.77;1.67;;;;;;;;;;5053123;28;20198;-85
2023/02/01 13:37:45;;;;;;;1.97;1.80;;;;;;;;;;5054278;28;20219;-85
2023/02/01 13:40:23;;;;;;;1.50;1.40;;;;;;;;;;5058281;28;20673;-85
2023/02/01 13:42:52;;;;;;;1.40;1.30;;;;;;;;;;5039269;28;20236;-85
2023/02/01 13:45:22;;;;;;;1.73;1.63;;;;;;;;;;5064344;28;20702;-85
2023/02/01 13:47:52;;;;;;;2.47;2.27;;;;;;;;;;5060301;28;20209;-85
2023/02/01 13:50:23;;;;;;;2.20;1.73;;;;;;;;;;5055096;28;20194;-85
2023/02/01 13:52:54;;;;;;;1.73;1.63;;;;;;;;;;5062153;28;20219;-84
2023/02/01 13:55:28;;;;;;;2.33;1.80;;;;;;;;;;5053540;28;20612;-85
2023/02/01 13:58:04;;;;;;;3.57;1.97;;;;;;;;;;5051457;28;20202;-85
2023/02/01 14:00:34;;;;;;;2.70;1.80;;;;;;;;;;5071183;28;20671;-85
2023/02/01 14:03:11;;;;;;;2.70;2.20;;;;;;;;;;5057709;28;20244;-85
2023/02/01 14:05:58;;;;;;;2.50;1.70;;;;;;;;;;5062204;28;20239;-86
2023/02/01 14:08:43;;;;;;;1.57;1.47;;;;;;;;;;5069405;28;20204;-85
2023/02/01 14:11:35;;;;;;;2.73;2.50;;;;;;;;;;5056692;28;20209;-86
2023/02/01 14:14:46;;;;;;;1.30;1.20;;;;;;;;;;5054404;28;20293;-85
2023/02/01 14:17:44;;;;;;;1.60;1.50;;;;;;;;;;5051322;28;20742;-85
2023/02/01 14:20:48;;;;;;;2.50;1.87;;;;;;;;;;5043672;28;20217;-85
2023/02/01 14:23:26;;;;;;;2.80;1.50;;;;;;;;;;5049545;28;20347;-85
2023/02/01 14:26:14;;;;;;;1.80;1.70;;;;;;;;;;5059919;28;20205;-85
2023/02/01 14:28:44;;;;;;;1.70;1.60;;;;;;;;;;5066642;28;20209;-85
2023/02/01 14:31:59;;;;;;;6.77;5.17;;;;;;;;;;5061989;28;20239;-85
2023/02/01 14:34:42;;;;;;;1.87;1.60;;;;;;;;;;5050317;28;20209;-85
2023/02/01 14:37:12;;;;;;;4.60;1.70;;;;;;;;;;5072788;28;20205;-86
2023/02/01 14:39:51;;;;;;;1.40;1.20;;;;;;;;;;5055064;28;20205;-89
2023/02/01 14:42:25;;;;;;;1.50;1.40;;;;;;;;;;5071735;28;20224;-85
2023/02/01 14:44:53;;;;;;;2.27;1.80;;;;;;;;;;5074715;28;20636;-85
2023/02/01 14:47:31;;;;;;;2.47;1.70;;;;;;;;;;5056125;28;20673;-85
2023/02/01 14:50:13;;;;;;;1.50;1.40;;;;;;;;;;5054371;28;20233;-85
2023/02/01 14:52:43;;;;;;;2.30;2.10;;;;;;;;;;5051524;28;20288;-87
2023/02/01 14:55:15;;;;;;;3.20;2.17;;;;;;;;;;5058526;28;20569;-90
2023/02/01 14:57:44;;;;;;;4.77;2.80;;;;;;;;;;5064821;28;20212;-85
2023/02/01 15:00:23;;;;;;;9.20;2.67;;;;;;;;;;5070184;28;20213;-86
2023/02/01 15:02:51;;;;;;;5.70;3.67;;;;;;;;;;5066936;28;20247;-85
2023/02/01 15:05:33;;;;;;;2.87;2.53;;;;;;;;;;5054733;28;20226;-85
2023/02/01 15:08:06;;;;;;;14.43;8.73;;;;;;;;;;5068729;28;20648;-86
2023/02/01 15:10:41;;;;;;;25.73;15.83;;;;;;;;;;5065261;28;20362;-85
2023/02/01 15:13:19;;;;;;;19.47;13.00;;;;;;;;;;5070759;28;20672;-86
2023/02/01 15:15:46;;;;;;;13.67;10.17;;;;;;;;;;5062018;28;20201;-85
2023/02/01 15:18:18;;;;;;;10.20;7.73;;;;;;;;;;5054072;28;20643;-86
2023/02/01 15:20:58;;;;;;;3.93;2.83;;;;;;;;;;5054065;28;20211;-85
2023/02/01 15:23:24;;;;;;;4.10;2.43;;;;;;;;;;5049707;28;20228;-85
2023/02/01 15:25:51;;;;;;;5.60;2.67;;;;;;;;;;5057481;28;20274;-87
2023/02/01 15:28:19;;;;;;;2.53;2.20;;;;;;;;;;5053115;28;20665;-85
2023/02/01 15:30:54;;;;;;;2.70;2.43;;;;;;;;;;5053726;28;20280;-86